Time,TemperatureF,DewpointF,PressureIn,WindDirection,WindDirectionDegrees,WindSpeedMPH,WindSpeedGustMPH,Humidity,HourlyPrecipIn,Conditions,Clouds,dailyrainin,SolarRadiationWatts/m^2,SoftwareType,DateUTC
2013-03-20 00:00:00,46.2,15.6,30.06,WNW,298,0.0,5.0,29,0.00,CLR,SCT,0.00,0.0,WeatherDisplay:10.37,2013-03-20 04:00:00,
2013-03-20 00:05:00,46.0,15.5,30.06,WNW,298,0.0,1.0,29,0.00,CLR,SCT,0.00,0.0,WeatherDisplay:10.37,2013-03-20 04:05:00,
2013-03-20 00:15:00,45.7,16.0,30.06,WNW,298,0.0,3.0,30,0.00,CLR,SCT,0.00,0.0,WeatherDisplay:10.37,2013-03-20 04:15:00,
2013-03-20 00:20:00,45.5,15.8,30.06,WNW,298,0.0,2.0,30,0.00,CLR,SCT,0.00,0.0,WeatherDisplay:10.37,2013-03-20 04:20:00,
2013-03-20 00:25:00,45.2,16.3,30.06,WNW,298,0.0,2.0,31,0.00,CLR,SCT,0.00,0.0,WeatherDisplay:10.37,2013-03-20 04:25:00,
2013-03-20 00:30:00,45.0,15.4,30.06,WNW,298,2.0,5.0,30,0.00,CLR,SCT,0.00,0.0,WeatherDisplay:10.37,2013-03-20 04:30:00,
2013-03-20 00:35:00,44.8,15.9,30.06,WNW,298,1.0,4.0,31,0.00,CLR,SCT,0.00,0.0,WeatherDisplay:10.37,2013-03-20 04:35:00,
2013-03-20 00:40:00,44.6,15.8,30.06,WNW,298,2.0,4.0,31,0.00,CLR,SCT,0.00,0.0,WeatherDisplay:10.37,2013-03-20 04:40:00,
2013-03-20 00:45:00,44.5,16.4,30.06,WNW,298,1.0,3.0,32,0.00,CLR,SCT,0.00,0.0,WeatherDisplay:10.37,2013-03-20 04:45:00,
2013-03-20 00:50:00,44.3,16.3,30.06,WNW,298,2.0,4.0,32,0.00,CLR,SCT,0.00,0.0,WeatherDisplay:10.37,2013-03-20 04:50:00,
2013-03-20 00:55:00,44.4,15.6,30.06,WNW,303,3.0,8.0,31,0.00,CLR,SCT,0.00,0.0,WeatherDisplay:10.37,2013-03-20 04:55:00,
2013-03-20 01:00:00,44.6,16.5,30.06,NW,306,1.0,5.0,32,0.00,CLR,SCT,0.00,0.0,WeatherDisplay:10.37,2013-03-20 05:00:00,
2013-03-20 01:05:00,44.7,15.9,30.06,NW,306,1.0,6.0,31,0.00,CLR,SCT,0.00,0.0,WeatherDisplay:10.37,2013-03-20 05:05:00,
2013-03-20 01:10:00,44.8,15.2,30.06,NW,306,0.0,2.0,30,0.00,CLR,SCT,0.00,0.0,WeatherDisplay:10.37,2013-03-20 05:10:00,
2013-03-20 01:15:00,44.9,16.0,30.06,NW,306,0.0,5.0,31,0.00,CLR,SCT,0.00,0.0,WeatherDisplay:10.37,2013-03-20 05:15:00,
2013-03-20 01:20:00,44.9,15.3,30.06,NW,306,0.0,4.0,30,0.00,CLR,SCT,0.00,0.0,WeatherDisplay:10.37,2013-03-20 05:20:00,
2013-03-20 01:25:00,44.9,15.3,30.06,NW,306,0.0,3.0,30,0.00,CLR,SCT,0.00,0.0,WeatherDisplay:10.37,2013-03-20 05:25:00,
2013-03-20 01:30:00,44.8,15.2,30.06,NW,306,0.0,0.0,30,0.00,CLR,SCT,0.00,0.0,WeatherDisplay:10.37,2013-03-20 05:30:00,
2013-03-20 01:35:00,44.7,16.6,30.07,NW,306,0.0,1.0,32,0.00,CLR,SCT,0.00,0.0,WeatherDisplay:10.37,2013-03-20 05:35:00,
2013-03-20 01:45:00,43.8,18.6,30.07,NW,306,0.0,0.0,36,0.00,CLR,SCT,0.00,0.0,WeatherDisplay:10.37,2013-03-20 05:45:00,
2013-03-20 01:50:00,43.5,18.9,30.07,NW,306,0.0,0.0,37,0.00,CLR,SCT,0.00,0.0,WeatherDisplay:10.37,2013-03-20 05:50:00,
2013-03-20 01:55:00,43.2,17.3,30.06,NW,306,0.0,1.0,35,0.00,CLR,SCT,0.00,0.0,WeatherDisplay:10.37,2013-03-20 05:55:00,
2013-03-20 02:00:00,42.8,16.3,30.06,NW,306,0.0,1.0,34,0.00,CLR,SCT,0.00,0.0,WeatherDisplay:10.37,2013-03-20 06:00:00,
2013-03-20 02:05:00,42.6,16.8,30.06,NW,306,0.0,2.0,35,0.00,CLR,SCT,0.00,0.0,WeatherDisplay:10.37,2013-03-20 06:05:00,
2013-03-20 02:10:00,42.4,16.6,30.06,NW,306,0.0,1.0,35,0.00,CLR,SCT,0.00,0.0,WeatherDisplay:10.37,2013-03-20 06:10:00,
2013-03-20 02:15:00,42.4,16.6,30.06,NW,306,0.0,1.0,35,0.00,CLR,SCT,0.00,0.0,WeatherDisplay:10.37,2013-03-20 06:15:00,
2013-03-20 02:20:00,42.4,16.6,30.06,NW,306,0.0,0.0,35,0.00,CLR,SCT,0.00,0.0,WeatherDisplay:10.37,2013-03-20 06:20:00,
2013-03-20 02:25:00,42.3,16.6,30.06,NW,306,0.0,1.0,35,0.00,CLR,SCT,0.00,0.0,WeatherDisplay:10.37,2013-03-20 06:25:00,
2013-03-20 02:30:00,42.3,16.6,30.06,NW,306,0.0,1.0,35,0.00,CLR,SCT,0.00,0.0,WeatherDisplay:10.37,2013-03-20 06:30:00,
2013-03-20 02:35:00,42.4,17.3,30.06,NW,306,0.0,2.0,36,0.00,CLR,SCT,0.00,0.0,WeatherDisplay:10.37,2013-03-20 06:35:00,
2013-03-20 02:40:00,42.5,16.7,30.06,NW,306,0.0,3.0,35,0.00,CLR,SCT,0.00,0.0,WeatherDisplay:10.37,2013-03-20 06:40:00,
2013-03-20 02:45:00,42.6,16.2,30.06,NW,306,1.0,4.0,34,0.00,CLR,SCT,0.00,0.0,WeatherDisplay:10.37,2013-03-20 06:45:00,
2013-03-20 02:50:00,42.8,16.3,30.05,NW,306,1.0,5.0,34,0.00,CLR,SCT,0.00,0.0,WeatherDisplay:10.37,2013-03-20 06:50:00,
2013-03-20 02:55:00,43.1,15.9,30.05,NW,306,2.0,7.0,33,0.00,CLR,SCT,0.00,0.0,WeatherDisplay:10.37,2013-03-20 06:55:00,
2013-03-20 03:00:00,43.5,15.5,30.05,WNW,302,2.0,5.0,32,0.00,CLR,SCT,0.00,0.0,WeatherDisplay:10.37,2013-03-20 07:00:00,
2013-03-20 03:05:00,43.8,15.8,30.05,WNW,299,1.0,6.0,32,0.00,CLR,SCT,0.00,0.0,WeatherDisplay:10.37,2013-03-20 07:05:00,
2013-03-20 03:10:00,43.9,15.2,30.05,WNW,297,3.0,6.0,31,0.00,CLR,SCT,0.00,0.0,WeatherDisplay:10.37,2013-03-20 07:10:00,
2013-03-20 03:15:00,44.1,14.6,30.05,WNW,287,0.0,6.0,30,0.00,CLR,SCT,0.00,0.0,WeatherDisplay:10.37,2013-03-20 07:15:00,
2013-03-20 03:20:00,44.2,14.7,30.05,West,272,1.0,4.0,30,0.00,CLR,SCT,0.00,0.0,WeatherDisplay:10.37,2013-03-20 07:20:00,
2013-03-20 03:25:00,44.2,13.9,30.05,West,268,2.0,6.0,29,0.00,CLR,SCT,0.00,0.0,WeatherDisplay:10.37,2013-03-20 07:25:00,
2013-03-20 03:30:00,44.1,14.6,30.05,West,270,0.0,3.0,30,0.00,CLR,SCT,0.00,0.0,WeatherDisplay:10.37,2013-03-20 07:30:00,
2013-03-20 03:35:00,44.1,15.3,30.05,West,271,0.0,3.0,31,0.00,CLR,SCT,0.00,0.0,WeatherDisplay:10.37,2013-03-20 07:35:00,
2013-03-20 03:40:00,44.0,14.5,30.05,West,271,0.0,3.0,30,0.00,CLR,SCT,0.00,0.0,WeatherDisplay:10.37,2013-03-20 07:40:00,
2013-03-20 03:45:00,43.9,14.4,30.05,West,271,0.0,1.0,30,0.00,CLR,SCT,0.00,0.0,WeatherDisplay:10.37,2013-03-20 07:45:00,
2013-03-20 03:50:00,43.8,17.2,30.05,West,271,0.0,0.0,34,0.00,CLR,SCT,0.00,0.0,WeatherDisplay:10.37,2013-03-20 07:50:00,
2013-03-20 03:55:00,43.6,20.3,30.05,West,271,0.0,0.0,39,0.00,CLR,SCT,0.00,0.0,WeatherDisplay:10.37,2013-03-20 07:55:00,
2013-03-20 04:00:00,43.0,20.9,30.04,West,271,0.0,1.0,41,0.00,CLR,SCT,0.00,0.0,WeatherDisplay:10.37,2013-03-20 08:00:00,
2013-03-20 04:05:00,42.6,20.5,30.04,West,271,0.0,0.0,41,0.00,CLR,SCT,0.00,0.0,WeatherDisplay:10.37,2013-03-20 08:05:00,
2013-03-20 04:10:00,42.4,19.7,30.05,West,271,0.0,0.0,40,0.00,CLR,SCT,0.00,0.0,WeatherDisplay:10.37,2013-03-20 08:10:00,
2013-03-20 04:15:00,42.1,20.1,30.04,West,271,0.0,1.0,41,0.00,CLR,SCT,0.00,0.0,WeatherDisplay:10.37,2013-03-20 08:15:00,
2013-03-20 04:20:00,41.8,18.0,30.04,West,271,0.0,0.0,38,0.00,CLR,SCT,0.00,0.0,WeatherDisplay:10.37,2013-03-20 08:20:00,
2013-03-20 04:25:00,41.5,17.1,30.04,West,271,0.0,1.0,37,0.00,CLR,SCT,0.00,0.0,WeatherDisplay:10.37,2013-03-20 08:25:00,
2013-03-20 04:30:00,41.4,19.4,30.04,West,271,0.0,1.0,41,0.00,CLR,SCT,0.00,0.0,WeatherDisplay:10.37,2013-03-20 08:30:00,
2013-03-20 04:35:00,41.2,19.8,30.04,West,271,0.0,1.0,42,0.00,CLR,SCT,0.00,0.0,WeatherDisplay:10.37,2013-03-20 08:35:00,
2013-03-20 04:40:00,41.1,18.6,30.04,West,271,0.0,1.0,40,0.00,CLR,SCT,0.00,0.0,WeatherDisplay:10.37,2013-03-20 08:40:00,
2013-03-20 04:45:00,41.0,17.9,30.03,West,271,0.0,1.0,39,0.00,CLR,SCT,0.00,0.0,WeatherDisplay:10.37,2013-03-20 08:45:00,
2013-03-20 04:50:00,40.9,17.2,30.03,West,271,0.0,1.0,38,0.00,CLR,SCT,0.00,0.0,WeatherDisplay:10.37,2013-03-20 08:50:00,
2013-03-20 04:55:00,40.8,15.9,30.03,West,271,1.0,4.0,36,0.00,CLR,SCT,0.00,0.0,WeatherDisplay:10.37,2013-03-20 08:55:00,
2013-03-20 05:00:00,40.9,15.9,30.03,West,272,0.0,4.0,36,0.00,CLR,SCT,0.00,0.0,WeatherDisplay:10.37,2013-03-20 09:00:00,
2013-03-20 05:05:00,40.9,15.3,30.03,WNW,285,2.0,5.0,35,0.00,CLR,SCT,0.00,0.0,WeatherDisplay:10.37,2013-03-20 09:05:00,
2013-03-20 05:10:00,41.0,14.1,30.03,NW,306,2.0,6.0,33,0.00,CLR,SCT,0.00,0.0,WeatherDisplay:10.37,2013-03-20 09:10:00,
2013-03-20 05:15:00,41.1,13.4,30.03,NW,314,2.0,5.0,32,0.00,CLR,SCT,0.00,0.0,WeatherDisplay:10.37,2013-03-20 09:15:00,
2013-03-20 05:20:00,41.1,13.4,30.04,NW,319,0.0,1.0,32,0.00,CLR,SCT,0.00,0.0,WeatherDisplay:10.37,2013-03-20 09:20:00,
2013-03-20 05:25:00,41.1,13.4,30.04,NW,319,0.0,2.0,32,0.00,CLR,SCT,0.00,0.0,WeatherDisplay:10.37,2013-03-20 09:25:00,
2013-03-20 05:30:00,41.1,13.4,30.04,NW,319,1.0,3.0,32,0.00,CLR,SCT,0.00,0.0,WeatherDisplay:10.37,2013-03-20 09:30:00,
2013-03-20 05:35:00,41.0,14.1,30.04,NW,319,0.0,3.0,33,0.00,CLR,SCT,0.00,0.0,WeatherDisplay:10.37,2013-03-20 09:35:00,
2013-03-20 05:40:00,40.9,13.3,30.04,NW,319,0.0,2.0,32,0.00,CLR,SCT,0.00,0.0,WeatherDisplay:10.37,2013-03-20 09:40:00,
2013-03-20 05:45:00,40.9,13.2,30.04,NW,319,0.0,1.0,32,0.00,CLR,SCT,0.00,0.0,WeatherDisplay:10.37,2013-03-20 09:45:00,
2013-03-20 05:50:00,40.7,12.4,30.04,NW,319,0.0,1.0,31,0.00,CLR,SCT,0.00,0.0,WeatherDisplay:10.37,2013-03-20 09:50:00,
2013-03-20 05:55:00,40.6,13.0,30.04,NW,319,0.0,1.0,32,0.00,CLR,SCT,0.00,0.0,WeatherDisplay:10.37,2013-03-20 09:55:00,
2013-03-20 06:00:00,40.5,15.6,30.05,NW,319,0.0,0.0,36,0.00,CLR,SCT,0.00,0.0,WeatherDisplay:10.37,2013-03-20 10:00:00,
2013-03-20 06:05:00,40.3,16.1,30.05,NW,319,0.0,0.0,37,0.00,CLR,SCT,0.00,0.0,WeatherDisplay:10.37,2013-03-20 10:05:00,
2013-03-20 06:10:00,40.0,17.0,30.05,NW,319,0.0,0.0,39,0.00,CLR,SCT,0.00,0.0,WeatherDisplay:10.37,2013-03-20 10:10:00,
2013-03-20 06:15:00,39.8,16.2,30.05,NW,319,0.0,0.0,38,0.00,CLR,SCT,0.00,0.0,WeatherDisplay:10.37,2013-03-20 10:15:00,
2013-03-20 06:25:00,38.9,14.8,30.05,NW,319,0.0,2.0,37,0.00,CLR,SCT,0.00,0.0,WeatherDisplay:10.37,2013-03-20 10:25:00,
2013-03-20 06:35:00,38.7,13.4,30.06,NW,319,0.0,3.0,35,0.00,CLR,SCT,0.00,0.0,WeatherDisplay:10.37,2013-03-20 10:35:00,
2013-03-20 06:45:00,38.7,13.4,30.06,NW,319,0.0,1.0,35,0.00,CLR,SCT,0.00,0.0,WeatherDisplay:10.37,2013-03-20 10:45:00,
2013-03-20 06:50:00,38.7,12.7,30.06,NW,319,0.0,1.0,34,0.00,CLR,SCT,0.00,0.0,WeatherDisplay:10.37,2013-03-20 10:50:00,
2013-03-20 06:55:00,38.8,12.8,30.07,NW,319,0.0,1.0,34,0.00,CLR,SCT,0.00,0.0,WeatherDisplay:10.37,2013-03-20 10:55:00,
2013-03-20 07:00:00,38.7,14.0,30.07,NW,319,0.0,0.0,36,0.00,CLR,SCT,0.00,0.0,WeatherDisplay:10.37,2013-03-20 11:00:00,
2013-03-20 07:05:00,38.6,14.5,30.07,NW,319,0.0,1.0,37,0.00,CLR,SCT,0.00,0.0,WeatherDisplay:10.37,2013-03-20 11:05:00,
2013-03-20 07:10:00,38.5,15.6,30.07,NW,319,0.0,0.0,39,0.00,CLR,SCT,0.00,0.0,WeatherDisplay:10.37,2013-03-20 11:10:00,
2013-03-20 07:15:00,38.2,17.1,30.07,NW,319,0.0,0.0,42,0.00,CLR,SCT,0.00,0.0,WeatherDisplay:10.37,2013-03-20 11:15:00,
2013-03-20 07:20:00,37.9,16.3,30.07,NW,319,0.0,0.0,41,0.00,CLR,SCT,0.00,0.0,WeatherDisplay:10.37,2013-03-20 11:20:00,
2013-03-20 07:25:00,37.7,16.6,30.08,NW,319,0.0,1.0,42,0.00,CLR,SCT,0.00,0.0,WeatherDisplay:10.37,2013-03-20 11:25:00,
2013-03-20 07:30:00,37.5,15.3,30.08,NW,319,0.0,0.0,40,0.00,CLR,SCT,0.00,0.0,WeatherDisplay:10.37,2013-03-20 11:30:00,
2013-03-20 07:40:00,37.5,14.2,30.08,NW,319,0.0,1.0,38,0.00,CLR,SCT,0.00,11.0,WeatherDisplay:10.37,2013-03-20 11:40:00,
2013-03-20 07:45:00,37.7,14.9,30.08,NW,319,0.0,1.0,39,0.00,CLR,SCT,0.00,18.0,WeatherDisplay:10.37,2013-03-20 11:45:00,
2013-03-20 07:50:00,37.8,15.6,30.08,NW,319,0.0,1.0,40,0.00,CLR,SCT,0.00,23.0,WeatherDisplay:10.37,2013-03-20 11:50:00,
2013-03-20 07:55:00,38.0,14.6,30.08,NW,319,0.0,1.0,38,0.00,SCT,SCT,0.00,30.0,WeatherDisplay:10.37,2013-03-20 11:55:00,
2013-03-20 08:00:00,38.3,16.0,30.09,NW,319,0.0,2.0,40,0.00,SCT,SCT,0.00,37.0,WeatherDisplay:10.37,2013-03-20 12:00:00,
2013-03-20 08:05:00,38.5,16.3,30.09,NW,319,0.0,2.0,40,0.00,SCT,SCT,0.00,47.0,WeatherDisplay:10.37,2013-03-20 12:05:00,
2013-03-20 08:10:00,38.8,15.3,30.09,NW,319,0.0,3.0,38,0.00,FEW,SCT,0.00,69.0,WeatherDisplay:10.37,2013-03-20 12:10:00,
2013-03-20 08:20:00,39.4,15.2,30.10,NW,319,0.0,1.0,37,0.00,FEW,SCT,0.00,84.0,WeatherDisplay:10.37,2013-03-20 12:20:00,
2013-03-20 08:25:00,39.6,16.1,30.10,NW,321,0.0,5.0,38,0.00,SCT,SCT,0.00,93.0,WeatherDisplay:10.37,2013-03-20 12:25:00,
2013-03-20 08:30:00,39.9,15.0,30.10,NW,321,0.0,1.0,36,0.00,SCT,SCT,0.00,98.0,WeatherDisplay:10.37,2013-03-20 12:30:00,
2013-03-20 08:35:00,40.1,14.6,30.10,NW,321,1.0,3.0,35,0.00,SCT,SCT,0.00,100.0,WeatherDisplay:10.37,2013-03-20 12:35:00,
2013-03-20 08:40:00,40.5,15.6,30.11,NNW,341,1.0,4.0,36,0.00,SCT,SCT,0.00,104.0,WeatherDisplay:10.37,2013-03-20 12:40:00,
2013-03-20 08:45:00,40.8,15.2,30.11,NNW,348,0.0,6.0,35,0.00,SCT,SCT,0.00,98.0,WeatherDisplay:10.37,2013-03-20 12:45:00,
2013-03-20 08:50:00,41.0,15.4,30.11,NNW,347,0.0,4.0,35,0.00,SCT,SCT,0.00,97.0,WeatherDisplay:10.37,2013-03-20 12:50:00,
2013-03-20 08:55:00,41.2,16.2,30.11,NNW,346,0.0,2.0,36,0.00,SCT,SCT,0.00,123.0,WeatherDisplay:10.37,2013-03-20 12:55:00,
2013-03-20 09:00:00,41.4,16.4,30.11,NNW,347,0.0,3.0,36,0.00,SCT,SCT,0.00,120.0,WeatherDisplay:10.37,2013-03-20 13:00:00,
2013-03-20 09:05:00,41.5,16.5,30.11,NNW,347,1.0,3.0,36,0.00,SCT,SCT,0.00,130.0,WeatherDisplay:10.37,2013-03-20 13:05:00,
2013-03-20 09:10:00,41.7,17.3,30.11,NNW,347,0.0,4.0,37,0.00,SCT,SCT,0.00,116.0,WeatherDisplay:10.37,2013-03-20 13:10:00,
2013-03-20 09:15:00,41.8,15.4,30.11,NNW,347,1.0,2.0,34,0.00,SCT,SCT,0.00,132.0,WeatherDisplay:10.37,2013-03-20 13:15:00,
2013-03-20 09:20:00,41.9,15.6,30.11,NNW,347,1.0,2.0,34,0.00,SCT,SCT,0.00,171.0,WeatherDisplay:10.37,2013-03-20 13:20:00,
2013-03-20 09:25:00,42.1,16.4,30.11,NNW,347,1.0,3.0,35,0.00,SCT,SCT,0.00,214.0,WeatherDisplay:10.37,2013-03-20 13:25:00,
2013-03-20 09:30:00,42.3,16.6,30.11,NNW,347,1.0,3.0,35,0.00,SCT,SCT,0.00,262.0,WeatherDisplay:10.37,2013-03-20 13:30:00,
2013-03-20 09:35:00,42.5,16.1,30.11,NNW,347,1.0,5.0,34,0.00,FEW,SCT,0.00,251.0,WeatherDisplay:10.37,2013-03-20 13:35:00,
2013-03-20 09:40:00,42.8,14.9,30.11,NNW,344,2.0,5.0,32,0.00,SCT,SCT,0.00,223.0,WeatherDisplay:10.37,2013-03-20 13:40:00,
2013-03-20 09:45:00,42.9,15.8,30.12,NNW,342,1.0,4.0,33,0.00,SCT,SCT,0.00,204.0,WeatherDisplay:10.37,2013-03-20 13:45:00,
2013-03-20 09:50:00,43.1,14.4,30.12,NNW,338,1.0,6.0,31,0.00,SCT,SCT,0.00,193.0,WeatherDisplay:10.37,2013-03-20 13:50:00,
2013-03-20 09:55:00,43.0,14.4,30.12,NNW,337,1.0,4.0,31,0.00,SCT,SCT,0.00,169.0,WeatherDisplay:10.37,2013-03-20 13:55:00,
2013-03-20 10:00:00,43.0,14.4,30.12,NNW,337,1.0,4.0,31,0.00,BKN,SCT,0.00,183.0,WeatherDisplay:10.37,2013-03-20 14:00:00,
2013-03-20 10:05:00,43.1,13.7,30.11,NNW,337,1.0,4.0,30,0.00,BKN,SCT,0.00,225.0,WeatherDisplay:10.37,2013-03-20 14:05:00,
2013-03-20 10:10:00,43.2,15.3,30.11,NNW,337,0.0,3.0,32,0.00,SCT,SCT,0.00,248.0,WeatherDisplay:10.37,2013-03-20 14:10:00,
2013-03-20 10:15:00,43.3,15.4,30.11,NNW,337,2.0,4.0,32,0.00,SCT,SCT,0.00,246.0,WeatherDisplay:10.37,2013-03-20 14:15:00,
2013-03-20 10:20:00,43.4,14.7,30.11,NNW,337,2.0,4.0,31,0.00,SCT,SCT,0.00,253.0,WeatherDisplay:10.37,2013-03-20 14:20:00,
2013-03-20 10:25:00,43.5,14.8,30.11,NNW,348,2.0,7.0,31,0.00,SCT,SCT,0.00,260.0,WeatherDisplay:10.37,2013-03-20 14:25:00,
2013-03-20 10:35:00,43.8,16.5,30.11,NNW,338,2.0,4.0,33,0.00,SCT,SCT,0.00,264.0,WeatherDisplay:10.37,2013-03-20 14:35:00,
2013-03-20 10:40:00,44.0,14.5,30.11,NNW,334,3.0,6.0,30,0.00,SCT,SCT,0.00,318.0,WeatherDisplay:10.37,2013-03-20 14:40:00,
2013-03-20 10:45:00,44.1,14.6,30.11,NNW,330,5.0,7.0,30,0.00,SCT,SCT,0.00,295.0,WeatherDisplay:10.37,2013-03-20 14:45:00,
2013-03-20 10:50:00,44.2,14.7,30.11,NW,326,5.0,8.0,30,0.00,SCT,SCT,0.00,322.0,WeatherDisplay:10.37,2013-03-20 14:50:00,
2013-03-20 10:55:00,44.3,14.8,30.11,NW,315,5.0,7.0,30,0.00,SCT,SCT,0.00,348.0,WeatherDisplay:10.37,2013-03-20 14:55:00,
2013-03-20 11:00:00,44.5,15.7,30.11,WNW,283,2.0,7.0,31,0.00,SCT,SCT,0.00,411.0,WeatherDisplay:10.37,2013-03-20 15:00:00,
2013-03-20 11:05:00,44.7,15.9,30.10,West,271,2.0,5.0,31,0.00,SCT,SCT,0.00,508.0,WeatherDisplay:10.37,2013-03-20 15:05:00,
2013-03-20 11:10:00,45.1,16.2,30.10,WNW,293,5.0,6.0,31,0.00,SCT,SCT,0.00,385.0,WeatherDisplay:10.37,2013-03-20 15:10:00,
2013-03-20 11:15:00,45.4,16.5,30.10,NW,305,2.0,8.0,31,0.00,SCT,SCT,0.00,536.0,WeatherDisplay:10.37,2013-03-20 15:15:00,
2013-03-20 11:20:00,45.8,15.3,30.09,NW,305,3.0,7.0,29,0.00,FEW,SCT,0.00,599.0,WeatherDisplay:10.37,2013-03-20 15:20:00,
2013-03-20 11:25:00,46.2,17.1,30.09,WNW,301,2.0,5.0,31,0.00,FEW,SCT,0.00,417.0,WeatherDisplay:10.37,2013-03-20 15:25:00,
2013-03-20 11:30:00,46.5,15.9,30.09,NW,309,3.0,7.0,29,0.00,FEW,SCT,0.00,610.0,WeatherDisplay:10.37,2013-03-20 15:30:00,
2013-03-20 11:35:00,46.6,14.4,30.09,NW,315,2.0,7.0,27,0.00,SCT,SCT,0.00,353.0,WeatherDisplay:10.37,2013-03-20 15:35:00,
2013-03-20 11:40:00,46.6,14.4,30.09,NW,307,2.0,6.0,27,0.00,SCT,SCT,0.00,390.0,WeatherDisplay:10.37,2013-03-20 15:40:00,
2013-03-20 11:45:00,46.6,14.4,30.08,WNW,302,2.0,6.0,27,0.00,SCT,SCT,0.00,390.0,WeatherDisplay:10.37,2013-03-20 15:45:00,
2013-03-20 11:50:00,46.8,15.4,30.08,NW,306,1.0,4.0,28,0.00,SCT,SCT,0.00,394.0,WeatherDisplay:10.37,2013-03-20 15:50:00,
2013-03-20 11:55:00,47.0,15.5,30.08,WNW,293,5.0,7.0,28,0.00,SCT,SCT,0.00,563.0,WeatherDisplay:10.37,2013-03-20 15:55:00,
2013-03-20 12:00:00,47.3,16.6,30.08,WNW,291,3.0,9.0,29,0.00,SCT,SCT,0.00,445.0,WeatherDisplay:10.37,2013-03-20 16:00:00,
2013-03-20 12:05:00,47.5,17.6,30.08,WNW,291,2.0,6.0,30,0.00,SCT,SCT,0.00,679.0,WeatherDisplay:10.37,2013-03-20 16:05:00,
2013-03-20 12:10:00,47.9,16.3,30.08,WNW,294,2.0,7.0,28,0.00,FEW,SCT,0.00,751.0,WeatherDisplay:10.37,2013-03-20 16:10:00,
2013-03-20 12:15:00,48.4,18.3,30.07,WNW,288,3.0,6.0,30,0.00,FEW,SCT,0.00,789.0,WeatherDisplay:10.37,2013-03-20 16:15:00,
2013-03-20 12:20:00,48.9,16.4,30.07,West,264,2.0,7.0,27,0.00,CLR,SCT,0.00,791.0,WeatherDisplay:10.37,2013-03-20 16:20:00,
2013-03-20 12:25:00,49.3,17.5,30.07,SW,228,1.0,5.0,28,0.00,CLR,SCT,0.00,821.0,WeatherDisplay:10.37,2013-03-20 16:25:00,
2013-03-20 12:30:00,49.6,16.1,30.07,WSW,248,5.0,12.0,26,0.00,CLR,SCT,0.00,986.0,WeatherDisplay:10.37,2013-03-20 16:30:00,
2013-03-20 12:35:00,49.7,15.3,30.06,West,267,2.0,7.0,25,0.00,CLR,SCT,0.00,693.0,WeatherDisplay:10.37,2013-03-20 16:35:00,
2013-03-20 12:40:00,49.6,16.9,30.06,West,275,5.0,12.0,27,0.00,CLR,SCT,0.00,649.0,WeatherDisplay:10.37,2013-03-20 16:40:00,
2013-03-20 12:45:00,49.7,16.2,30.06,WSW,257,7.0,12.0,26,0.00,FEW,SCT,0.00,970.0,WeatherDisplay:10.37,2013-03-20 16:45:00,
2013-03-20 12:50:00,50.0,15.5,30.05,WSW,251,2.0,7.0,25,0.00,FEW,SCT,0.00,513.0,WeatherDisplay:10.37,2013-03-20 16:50:00,
2013-03-20 12:55:00,50.4,17.6,30.05,WSW,246,5.0,8.0,27,0.00,SCT,SCT,0.00,513.0,WeatherDisplay:10.37,2013-03-20 16:55:00,
2013-03-20 13:00:00,50.7,17.9,30.04,WSW,245,8.0,12.0,27,0.00,SCT,SCT,0.00,513.0,WeatherDisplay:10.37,2013-03-20 17:00:00,
2013-03-20 13:05:00,50.9,18.0,30.03,WSW,240,5.0,9.0,27,0.00,SCT,SCT,0.00,513.0,WeatherDisplay:10.37,2013-03-20 17:05:00,
2013-03-20 13:10:00,51.2,19.2,30.03,SSW,208,2.0,9.0,28,0.00,SCT,SCT,0.00,1072.0,WeatherDisplay:10.37,2013-03-20 17:10:00,
2013-03-20 13:15:00,51.8,18.8,30.03,SSW,203,5.0,12.0,27,0.00,CLR,SCT,0.00,1072.0,WeatherDisplay:10.37,2013-03-20 17:15:00,
2013-03-20 13:20:00,52.2,18.3,30.02,SW,228,7.0,12.0,26,0.00,CLR,SCT,0.00,979.0,WeatherDisplay:10.37,2013-03-20 17:20:00,
2013-03-20 13:25:00,52.2,20.0,30.02,WSW,242,6.0,13.0,28,0.00,CLR,SCT,0.00,977.0,WeatherDisplay:10.37,2013-03-20 17:25:00,
2013-03-20 13:30:00,52.4,19.3,30.01,WSW,244,7.0,12.0,27,0.00,CLR,SCT,0.00,629.0,WeatherDisplay:10.37,2013-03-20 17:30:00,
2013-03-20 13:40:00,52.4,19.3,30.00,SW,228,3.0,7.0,27,0.00,FEW,SCT,0.00,895.0,WeatherDisplay:10.37,2013-03-20 17:40:00,
2013-03-20 13:45:00,52.8,18.8,30.00,SW,227,2.0,7.0,26,0.00,CLR,SCT,0.00,886.0,WeatherDisplay:10.37,2013-03-20 17:45:00,
2013-03-20 13:50:00,53.1,19.0,29.99,SW,230,7.0,12.0,26,0.00,CLR,SCT,0.00,939.0,WeatherDisplay:10.37,2013-03-20 17:50:00,
2013-03-20 13:55:00,53.2,19.2,29.99,WSW,241,8.0,15.0,26,0.00,CLR,SCT,0.00,923.0,WeatherDisplay:10.37,2013-03-20 17:55:00,
2013-03-20 14:00:00,53.2,17.3,29.99,WSW,251,2.0,15.0,24,0.00,CLR,SCT,0.00,944.0,WeatherDisplay:10.37,2013-03-20 18:00:00,
2013-03-20 14:05:00,53.3,18.3,29.99,WSW,245,3.0,10.0,25,0.00,CLR,SCT,0.00,891.0,WeatherDisplay:10.37,2013-03-20 18:05:00,
2013-03-20 14:10:00,53.5,20.3,29.98,SW,224,3.0,9.0,27,0.00,CLR,SCT,0.00,889.0,WeatherDisplay:10.37,2013-03-20 18:10:00,
2013-03-20 14:15:00,53.9,19.8,29.97,SW,224,7.0,13.0,26,0.00,CLR,SCT,0.00,940.0,WeatherDisplay:10.37,2013-03-20 18:15:00,
2013-03-20 14:20:00,54.3,17.2,29.97,WSW,240,8.0,12.0,23,0.00,CLR,SCT,0.00,893.0,WeatherDisplay:10.37,2013-03-20 18:20:00,
2013-03-20 14:30:00,54.0,17.0,29.96,WSW,245,8.0,16.0,23,0.00,CLR,SCT,0.00,914.0,WeatherDisplay:10.37,2013-03-20 18:30:00,
2013-03-20 14:35:00,54.0,18.0,29.95,WSW,241,3.0,12.0,24,0.00,CLR,SCT,0.00,921.0,WeatherDisplay:10.37,2013-03-20 18:35:00,
2013-03-20 14:40:00,54.2,18.1,29.95,WSW,244,8.0,14.0,24,0.00,CLR,SCT,0.00,919.0,WeatherDisplay:10.37,2013-03-20 18:40:00,
2013-03-20 14:45:00,54.6,21.2,29.94,WSW,243,7.0,14.0,27,0.00,CLR,SCT,0.00,911.0,WeatherDisplay:10.37,2013-03-20 18:45:00,
2013-03-20 14:50:00,54.7,19.5,29.93,WSW,253,1.0,8.0,25,0.00,CLR,SCT,0.00,900.0,WeatherDisplay:10.37,2013-03-20 18:50:00,
2013-03-20 14:55:00,55.2,20.8,29.93,West,261,7.0,14.0,26,0.00,CLR,SCT,0.00,895.0,WeatherDisplay:10.37,2013-03-20 18:55:00,
2013-03-20 15:05:00,55.3,18.1,29.92,WSW,240,6.0,12.0,23,0.00,CLR,SCT,0.00,872.0,WeatherDisplay:10.37,2013-03-20 19:05:00,
2013-03-20 15:15:00,55.7,19.4,29.91,WSW,245,5.0,9.0,24,0.00,CLR,SCT,0.00,856.0,WeatherDisplay:10.37,2013-03-20 19:15:00,
2013-03-20 15:20:00,55.7,17.4,29.90,West,260,8.0,16.0,22,0.00,CLR,SCT,0.00,840.0,WeatherDisplay:10.37,2013-03-20 19:20:00,
2013-03-20 15:25:00,55.8,19.5,29.90,WSW,244,2.0,12.0,24,0.00,CLR,SCT,0.00,830.0,WeatherDisplay:10.37,2013-03-20 19:25:00,
2013-03-20 15:30:00,56.2,19.9,29.89,SW,224,9.0,14.0,24,0.00,CLR,SCT,0.00,821.0,WeatherDisplay:10.37,2013-03-20 19:30:00,
2013-03-20 15:35:00,56.4,19.0,29.89,WSW,241,10.0,15.0,23,0.00,CLR,SCT,0.00,809.0,WeatherDisplay:10.37,2013-03-20 19:35:00,
2013-03-20 15:40:00,56.1,18.8,29.89,WSW,243,10.0,20.0,23,0.00,CLR,SCT,0.00,795.0,WeatherDisplay:10.37,2013-03-20 19:40:00,
2013-03-20 15:45:00,55.9,18.6,29.89,SW,235,8.0,14.0,23,0.00,CLR,SCT,0.00,784.0,WeatherDisplay:10.37,2013-03-20 19:45:00,
2013-03-20 15:50:00,56.0,19.7,29.88,SW,214,5.0,10.0,24,0.00,CLR,SCT,0.00,775.0,WeatherDisplay:10.37,2013-03-20 19:50:00,
2013-03-20 15:55:00,56.2,18.8,29.88,SSW,192,3.0,12.0,23,0.00,CLR,SCT,0.00,763.0,WeatherDisplay:10.37,2013-03-20 19:55:00,
2013-03-20 16:00:00,56.4,19.0,29.88,SW,216,8.0,13.0,23,0.00,CLR,SCT,0.00,751.0,WeatherDisplay:10.37,2013-03-20 20:00:00,
2013-03-20 16:05:00,56.5,18.1,29.87,SW,233,3.0,13.0,22,0.00,CLR,SCT,0.00,737.0,WeatherDisplay:10.37,2013-03-20 20:05:00,
2013-03-20 16:10:00,56.6,17.1,29.87,SW,217,6.0,13.0,21,0.00,CLR,SCT,0.00,722.0,WeatherDisplay:10.37,2013-03-20 20:10:00,
2013-03-20 16:15:00,56.7,18.2,29.87,SSW,197,5.0,9.0,22,0.00,CLR,SCT,0.00,708.0,WeatherDisplay:10.37,2013-03-20 20:15:00,
2013-03-20 16:25:00,57.1,18.5,29.86,SW,226,3.0,13.0,22,0.00,CLR,SCT,0.00,682.0,WeatherDisplay:10.37,2013-03-20 20:25:00,
2013-03-20 16:30:00,56.9,17.3,29.86,SSW,204,5.0,14.0,21,0.00,CLR,SCT,0.00,670.0,WeatherDisplay:10.37,2013-03-20 20:30:00,
2013-03-20 16:35:00,56.8,17.2,29.86,SW,218,7.0,9.0,21,0.00,CLR,SCT,0.00,657.0,WeatherDisplay:10.37,2013-03-20 20:35:00,
2013-03-20 16:40:00,56.7,18.2,29.86,WSW,239,2.0,7.0,22,0.00,CLR,SCT,0.00,650.0,WeatherDisplay:10.37,2013-03-20 20:40:00,
2013-03-20 16:45:00,56.9,18.4,29.86,WSW,244,5.0,10.0,22,0.00,CLR,SCT,0.00,645.0,WeatherDisplay:10.37,2013-03-20 20:45:00,
2013-03-20 16:50:00,56.9,19.5,29.85,WSW,242,5.0,10.0,23,0.00,CLR,SCT,0.00,629.0,WeatherDisplay:10.37,2013-03-20 20:50:00,
2013-03-20 16:55:00,57.0,18.5,29.85,SSW,206,5.0,8.0,22,0.00,CLR,SCT,0.00,534.0,WeatherDisplay:10.37,2013-03-20 20:55:00,
2013-03-20 17:00:00,57.1,20.6,29.85,SSW,207,7.0,12.0,24,0.00,CLR,SCT,0.00,592.0,WeatherDisplay:10.37,2013-03-20 21:00:00,
2013-03-20 17:05:00,57.1,18.6,29.84,SW,235,8.0,12.0,22,0.00,CLR,SCT,0.00,559.0,WeatherDisplay:10.37,2013-03-20 21:05:00,
2013-03-20 17:15:00,56.5,18.1,29.84,SW,229,5.0,9.0,22,0.00,CLR,SCT,0.00,450.0,WeatherDisplay:10.37,2013-03-20 21:15:00,
2013-03-20 17:20:00,56.3,18.9,29.84,SW,219,5.0,12.0,23,0.00,FEW,SCT,0.00,176.0,WeatherDisplay:10.37,2013-03-20 21:20:00,
2013-03-20 17:25:00,56.0,16.6,29.83,SW,226,2.0,12.0,21,0.00,SCT,SCT,0.00,244.0,WeatherDisplay:10.37,2013-03-20 21:25:00,
2013-03-20 17:30:00,55.8,17.5,29.83,SSW,213,3.0,6.0,22,0.00,SCT,SCT,0.00,223.0,WeatherDisplay:10.37,2013-03-20 21:30:00,
2013-03-20 17:35:00,55.5,16.1,29.83,South,177,8.0,13.0,21,0.00,SCT,SCT,0.00,232.0,WeatherDisplay:10.37,2013-03-20 21:35:00,
2013-03-20 17:40:00,55.2,17.0,29.83,South,183,3.0,12.0,22,0.00,SCT,SCT,0.00,171.0,WeatherDisplay:10.37,2013-03-20 21:40:00,
2013-03-20 17:45:00,55.0,16.8,29.83,SSW,201,7.0,13.0,22,0.00,SCT,SCT,0.00,167.0,WeatherDisplay:10.37,2013-03-20 21:45:00,
2013-03-20 17:50:00,54.7,17.6,29.82,SSW,206,1.0,14.0,23,0.00,SCT,SCT,0.00,134.0,WeatherDisplay:10.37,2013-03-20 21:50:00,
2013-03-20 17:55:00,54.6,17.5,29.82,South,189,2.0,7.0,23,0.00,SCT,SCT,0.00,125.0,WeatherDisplay:10.37,2013-03-20 21:55:00,
2013-03-20 18:00:00,54.5,17.4,29.82,South,187,6.0,9.0,23,0.00,BKN,SCT,0.00,102.0,WeatherDisplay:10.37,2013-03-20 22:00:00,
2013-03-20 18:05:00,54.3,17.2,29.82,SSW,201,3.0,9.0,23,0.00,BKN,SCT,0.00,93.0,WeatherDisplay:10.37,2013-03-20 22:05:00,
2013-03-20 18:10:00,54.1,16.0,29.82,SW,215,6.0,13.0,22,0.00,BKN,SCT,0.00,84.0,WeatherDisplay:10.37,2013-03-20 22:10:00,
2013-03-20 18:15:00,54.0,17.0,29.82,SSW,208,2.0,8.0,23,0.00,BKN,SCT,0.00,67.0,WeatherDisplay:10.37,2013-03-20 22:15:00,
2013-03-20 18:20:00,53.9,14.8,29.82,SSW,198,1.0,8.0,21,0.00,BKN,SCT,0.00,67.0,WeatherDisplay:10.37,2013-03-20 22:20:00,
2013-03-20 18:25:00,53.8,15.8,29.82,South,190,1.0,3.0,22,0.00,BKN,SCT,0.00,65.0,WeatherDisplay:10.37,2013-03-20 22:25:00,
2013-03-20 18:30:00,53.8,16.8,29.82,SSW,205,5.0,12.0,23,0.00,BKN,SCT,0.00,47.0,WeatherDisplay:10.37,2013-03-20 22:30:00,
2013-03-20 18:35:00,53.7,16.7,29.83,SSW,213,3.0,12.0,23,0.00,BKN,SCT,0.00,54.0,WeatherDisplay:10.37,2013-03-20 22:35:00,
2013-03-20 18:40:00,53.6,16.6,29.83,SW,224,6.0,9.0,23,0.00,BKN,SCT,0.00,46.0,WeatherDisplay:10.37,2013-03-20 22:40:00,
2013-03-20 18:45:00,53.5,16.6,29.82,WSW,240,1.0,8.0,23,0.00,BKN,SCT,0.00,40.0,WeatherDisplay:10.37,2013-03-20 22:45:00,
2013-03-20 18:50:00,53.5,17.5,29.82,WSW,246,0.0,5.0,24,0.00,BKN,SCT,0.00,40.0,WeatherDisplay:10.37,2013-03-20 22:50:00,
2013-03-20 18:55:00,53.4,16.5,29.82,WSW,246,0.0,2.0,23,0.00,BKN,SCT,0.00,33.0,WeatherDisplay:10.37,2013-03-20 22:55:00,
2013-03-20 19:00:00,53.3,18.3,29.82,WSW,246,0.0,2.0,25,0.00,BKN,SCT,0.00,30.0,WeatherDisplay:10.37,2013-03-20 23:00:00,
2013-03-20 19:05:00,53.3,17.3,29.82,WSW,246,0.0,2.0,24,0.00,BKN,SCT,0.00,25.0,WeatherDisplay:10.37,2013-03-20 23:05:00,
2013-03-20 19:10:00,53.2,18.2,29.82,WSW,246,0.0,1.0,25,0.00,BKN,SCT,0.00,19.0,WeatherDisplay:10.37,2013-03-20 23:10:00,
2013-03-20 19:15:00,53.1,17.2,29.82,WSW,246,1.0,3.0,24,0.00,BKN,SCT,0.00,16.0,WeatherDisplay:10.37,2013-03-20 23:15:00,
2013-03-20 19:20:00,53.0,16.1,29.81,WSW,246,1.0,5.0,23,0.00,BKN,SCT,0.00,11.0,WeatherDisplay:10.37,2013-03-20 23:20:00,
2013-03-20 19:25:00,52.9,17.0,29.82,WSW,246,0.0,1.0,24,0.00,BKN,SCT,0.00,12.0,WeatherDisplay:10.37,2013-03-20 23:25:00,
2013-03-20 19:30:00,52.8,16.9,29.81,SW,228,2.0,6.0,24,0.00,BKN,SCT,0.00,0.0,WeatherDisplay:10.37,2013-03-20 23:30:00,
2013-03-20 19:35:00,52.6,17.7,29.81,SSW,210,3.0,7.0,25,0.00,BKN,SCT,0.00,0.0,WeatherDisplay:10.37,2013-03-20 23:35:00,
2013-03-20 19:40:00,52.5,17.6,29.81,SSW,203,6.0,9.0,25,0.00,BKN,SCT,0.00,0.0,WeatherDisplay:10.37,2013-03-20 23:40:00,
2013-03-20 19:45:00,52.5,16.7,29.81,SW,214,7.0,14.0,24,0.00,BKN,SCT,0.00,0.0,WeatherDisplay:10.37,2013-03-20 23:45:00,
2013-03-20 19:50:00,52.5,17.6,29.81,WSW,240,9.0,17.0,25,0.00,BKN,SCT,0.00,0.0,WeatherDisplay:10.37,2013-03-20 23:50:00,
2013-03-20 19:55:00,52.6,17.7,29.81,WSW,240,3.0,9.0,25,0.00,BKN,SCT,0.00,0.0,WeatherDisplay:10.37,2013-03-20 23:55:00,
2013-03-20 20:00:00,52.6,17.7,29.81,SW,220,1.0,9.0,25,0.00,BKN,SCT,0.00,0.0,WeatherDisplay:10.37,2013-03-21 00:00:00,
2013-03-20 20:05:00,52.6,18.6,29.81,SW,231,2.0,5.0,26,0.00,BKN,SCT,0.00,0.0,WeatherDisplay:10.37,2013-03-21 00:05:00,
2013-03-20 20:10:00,52.5,18.6,29.81,WSW,238,1.0,2.0,26,0.00,BKN,SCT,0.00,0.0,WeatherDisplay:10.37,2013-03-21 00:10:00,
2013-03-20 20:15:00,52.4,18.5,29.81,WSW,238,0.0,2.0,26,0.00,BKN,SCT,0.00,0.0,WeatherDisplay:10.37,2013-03-21 00:15:00,
2013-03-20 20:20:00,52.3,19.3,29.81,WSW,238,0.0,2.0,27,0.00,BKN,SCT,0.00,0.0,WeatherDisplay:10.37,2013-03-21 00:20:00,
2013-03-20 20:25:00,52.1,19.9,29.81,WSW,238,0.0,2.0,28,0.00,BKN,SCT,0.00,0.0,WeatherDisplay:10.37,2013-03-21 00:25:00,
2013-03-20 20:30:00,52.0,18.1,29.81,WSW,238,1.0,3.0,26,0.00,BKN,SCT,0.00,0.0,WeatherDisplay:10.37,2013-03-21 00:30:00,
2013-03-20 20:35:00,51.8,18.0,29.81,SE,144,9.0,21.0,26,0.00,BKN,SCT,0.00,0.0,WeatherDisplay:10.37,2013-03-21 00:35:00,
2013-03-20 20:40:00,51.8,18.8,29.81,SE,132,1.0,3.0,27,0.00,BKN,SCT,0.00,0.0,WeatherDisplay:10.37,2013-03-21 00:40:00,
2013-03-20 20:45:00,51.7,17.0,29.81,SE,127,1.0,4.0,25,0.00,BKN,SCT,0.00,0.0,WeatherDisplay:10.37,2013-03-21 00:45:00,
2013-03-20 20:50:00,51.5,16.8,29.81,SE,131,0.0,2.0,25,0.00,BKN,SCT,0.00,0.0,WeatherDisplay:10.37,2013-03-21 00:50:00,
2013-03-20 20:55:00,51.4,18.5,29.81,SE,137,1.0,4.0,27,0.00,BKN,SCT,0.00,0.0,WeatherDisplay:10.37,2013-03-21 00:55:00,
2013-03-20 21:00:00,51.2,16.5,29.81,WSW,253,6.0,10.0,25,0.00,BKN,SCT,0.00,0.0,WeatherDisplay:10.37,2013-03-21 01:00:00,
2013-03-20 21:05:00,51.2,19.2,29.81,SW,232,8.0,14.0,28,0.00,BKN,SCT,0.00,0.0,WeatherDisplay:10.37,2013-03-21 01:05:00,
2013-03-20 21:10:00,51.2,20.8,29.81,SW,218,3.0,14.0,30,0.00,BKN,SCT,0.00,0.0,WeatherDisplay:10.37,2013-03-21 01:10:00,
2013-03-20 21:15:00,51.0,22.1,29.81,SSW,198,5.0,15.0,32,0.00,BKN,SCT,0.00,0.0,WeatherDisplay:10.37,2013-03-21 01:15:00,
2013-03-20 21:20:00,50.9,22.7,29.82,SSW,192,7.0,23.0,33,0.00,BKN,SCT,0.00,0.0,WeatherDisplay:10.37,2013-03-21 01:20:00,
2013-03-20 21:25:00,50.2,24.9,29.83,West,278,2.0,25.0,37,0.00,BKN,SCT,0.00,0.0,WeatherDisplay:10.37,2013-03-21 01:25:00,
2013-03-20 21:30:00,49.9,25.3,29.82,WNW,291,5.0,9.0,38,0.00,BKN,SCT,0.00,0.0,WeatherDisplay:10.37,2013-03-21 01:30:00,
2013-03-20 21:35:00,49.6,24.4,29.82,NW,309,1.0,12.0,37,0.00,BKN,SCT,0.00,0.0,WeatherDisplay:10.37,2013-03-21 01:35:00,
2013-03-20 21:40:00,49.4,24.8,29.83,NW,314,7.0,21.0,38,0.00,BKN,SCT,0.00,0.0,WeatherDisplay:10.37,2013-03-21 01:40:00,
2013-03-20 21:45:00,49.0,25.7,29.83,NW,305,5.0,17.0,40,0.00,BKN,SCT,0.00,0.0,WeatherDisplay:10.37,2013-03-21 01:45:00,
2013-03-20 21:50:00,48.7,25.4,29.83,NW,305,2.0,8.0,40,0.00,BKN,SCT,0.00,0.0,WeatherDisplay:10.37,2013-03-21 01:50:00,
2013-03-20 22:00:00,48.4,25.2,29.83,West,263,8.0,20.0,40,0.00,BKN,SCT,0.00,0.0,WeatherDisplay:10.37,2013-03-21 02:00:00,
2013-03-20 22:05:00,48.3,25.7,29.82,SSE,157,7.0,17.0,41,0.00,BKN,SCT,0.00,0.0,WeatherDisplay:10.37,2013-03-21 02:05:00,
2013-03-20 22:10:00,48.1,26.1,29.81,SE,125,3.0,12.0,42,0.00,BKN,SCT,0.00,0.0,WeatherDisplay:10.37,2013-03-21 02:10:00,
2013-03-20 22:15:00,48.0,24.8,29.81,SE,135,1.0,5.0,40,0.00,BKN,SCT,0.00,0.0,WeatherDisplay:10.37,2013-03-21 02:15:00,
2013-03-20 22:20:00,48.0,24.8,29.81,SSE,147,1.0,6.0,40,0.00,BKN,SCT,0.00,0.0,WeatherDisplay:10.37,2013-03-21 02:20:00,
2013-03-20 22:25:00,47.9,24.1,29.80,SE,144,1.0,7.0,39,0.00,BKN,SCT,0.00,0.0,WeatherDisplay:10.37,2013-03-21 02:25:00,
2013-03-20 22:30:00,47.8,24.6,29.80,SE,141,2.0,4.0,40,0.00,BKN,SCT,0.00,0.0,WeatherDisplay:10.37,2013-03-21 02:30:00,
2013-03-20 22:35:00,47.7,24.5,29.80,SE,140,1.0,2.0,40,0.00,BKN,SCT,0.00,0.0,WeatherDisplay:10.37,2013-03-21 02:35:00,
2013-03-20 22:40:00,47.6,25.0,29.80,SE,140,1.0,4.0,41,0.00,BKN,SCT,0.00,0.0,WeatherDisplay:10.37,2013-03-21 02:40:00,
2013-03-20 22:45:00,47.4,24.9,29.80,SE,140,0.0,1.0,41,0.00,BKN,SCT,0.00,0.0,WeatherDisplay:10.37,2013-03-21 02:45:00,
2013-03-20 22:50:00,47.3,25.3,29.79,SE,140,0.0,0.0,42,0.00,BKN,SCT,0.00,0.0,WeatherDisplay:10.37,2013-03-21 02:50:00,
2013-03-20 22:55:00,47.1,25.2,29.79,SE,140,0.0,0.0,42,0.00,BKN,SCT,0.00,0.0,WeatherDisplay:10.37,2013-03-21 02:55:00,
2013-03-20 23:00:00,46.9,25.5,29.79,SE,140,0.0,0.0,43,0.00,BKN,SCT,0.00,0.0,WeatherDisplay:10.37,2013-03-21 03:00:00,
2013-03-20 23:05:00,46.5,25.7,29.80,SE,140,1.0,1.0,44,0.00,BKN,SCT,0.00,0.0,WeatherDisplay:10.37,2013-03-21 03:05:00,
2013-03-20 23:10:00,45.6,25.4,29.80,SE,140,0.0,1.0,45,0.00,BKN,SCT,0.00,0.0,WeatherDisplay:10.37,2013-03-21 03:10:00,
2013-03-20 23:15:00,45.0,26.0,29.80,SE,140,0.0,1.0,47,0.00,BKN,SCT,0.00,0.0,WeatherDisplay:10.37,2013-03-21 03:15:00,
2013-03-20 23:20:00,44.2,25.7,29.80,SE,140,0.0,2.0,48,0.00,BKN,SCT,0.00,0.0,WeatherDisplay:10.37,2013-03-21 03:20:00,
2013-03-20 23:25:00,43.7,26.3,29.79,SE,140,0.0,0.0,50,0.00,BKN,SCT,0.00,0.0,WeatherDisplay:10.37,2013-03-21 03:25:00,
2013-03-20 23:30:00,43.2,26.2,29.80,SE,140,0.0,3.0,51,0.00,BKN,SCT,0.00,0.0,WeatherDisplay:10.37,2013-03-21 03:30:00,
2013-03-20 23:35:00,42.6,26.2,29.80,SE,140,0.0,3.0,52,0.00,BKN,SCT,0.00,0.0,WeatherDisplay:10.37,2013-03-21 03:35:00,
2013-03-20 23:40:00,42.2,25.3,29.80,SE,140,0.0,1.0,51,0.00,BKN,SCT,0.00,0.0,WeatherDisplay:10.37,2013-03-21 03:40:00,
2013-03-20 23:45:00,41.9,25.1,29.80,SE,140,0.0,2.0,51,0.00,BKN,SCT,0.00,0.0,WeatherDisplay:10.37,2013-03-21 03:45:00,
2013-03-20 23:50:00,41.7,25.4,29.80,SE,140,0.0,0.0,52,0.00,BKN,SCT,0.00,0.0,WeatherDisplay:10.37,2013-03-21 03:50:00,
2013-03-20 23:55:00,41.6,25.3,29.80,SE,140,0.0,0.0,52,0.00,BKN,SCT,0.00,0.0,WeatherDisplay:10.37,2013-03-21 03:55:00,